createdAt,value
2017-10-20T03:30:23.894Z,4.00
2017-10-20T03:32:51.430Z,4.00
2017-10-20T03:35:18.949Z,4.60
2017-10-20T03:37:46.467Z,4.13
2017-10-20T03:40:14.002Z,3.35
2017-10-20T03:50:04.606Z,3.70
2017-10-20T03:52:33.431Z,3.57
2017-10-20T03:55:00.965Z,4.27
2017-10-20T03:57:28.487Z,4.70
2017-10-20T03:59:55.988Z,4.72
2017-10-20T04:02:23.873Z,5.60
2017-10-20T04:04:52.219Z,5.77
2017-10-20T04:07:20.509Z,6.77
2017-10-20T04:09:48.033Z,5.97
2017-10-20T04:12:16.470Z,7.63
2017-10-20T04:14:44.040Z,7.80
2017-10-20T04:17:11.594Z,7.97
2017-10-20T04:19:40.071Z,10.20
2017-10-20T04:22:08.349Z,8.93
2017-10-20T04:24:36.126Z,9.30
2017-10-20T04:27:03.633Z,9.60
2017-10-20T04:29:31.920Z,9.20
2017-10-20T04:31:59.448Z,7.47
2017-10-20T04:34:26.975Z,6.90
2017-10-20T04:36:54.485Z,7.30
2017-10-20T04:39:22.807Z,7.67
2017-10-20T04:41:50.321Z,7.60
2017-10-20T04:44:19.573Z,7.60
2017-10-20T04:46:47.165Z,5.53
2017-10-20T04:49:15.439Z,5.43
2017-10-20T04:51:44.130Z,4.90
2017-10-20T04:54:11.657Z,5.13
2017-10-20T04:56:39.225Z,5.20
2017-10-20T04:59:06.745Z,5.33
2017-10-20T05:01:34.291Z,6.30
2017-10-20T05:04:01.792Z,7.27
2017-10-20T05:06:29.300Z,7.00
2017-10-20T05:08:57.627Z,7.30
2017-10-20T05:11:25.380Z,7.47
2017-10-20T05:13:52.888Z,7.20
2017-10-20T05:16:20.466Z,6.37
2017-10-20T05:18:48.741Z,4.27
2017-10-20T05:21:17.017Z,4.33
2017-10-20T05:23:45.340Z,4.70
2017-10-20T05:26:13.732Z,5.13
2017-10-20T05:28:41.306Z,5.83
2017-10-20T05:31:08.849Z,5.50
2017-10-20T05:33:37.066Z,4.53
2017-10-20T05:36:05.334Z,3.70
2017-10-20T05:38:33.626Z,4.23
2017-10-20T05:41:01.133Z,4.60
2017-10-20T05:43:28.648Z,4.43
2017-10-20T05:45:56.930Z,4.50
2017-10-20T05:48:24.454Z,4.30
2017-10-20T05:50:52.178Z,4.10
2017-10-20T05:53:19.709Z,3.80
2017-10-20T05:55:47.263Z,4.83
2017-10-20T05:58:14.780Z,4.33
2017-10-20T06:00:42.318Z,3.80
2017-10-20T06:03:10.275Z,3.63
2017-10-20T06:05:38.636Z,3.80
2017-10-20T06:08:06.284Z,4.10
2017-10-20T06:10:34.555Z,4.80
2017-10-20T06:13:02.098Z,4.27
2017-10-20T06:15:29.928Z,4.90
2017-10-20T06:17:57.460Z,3.23
2017-10-20T06:20:24.966Z,4.00
2017-10-20T06:22:52.766Z,3.90
2017-10-20T06:25:20.284Z,4.67
2017-10-20T06:27:47.804Z,3.70
2017-10-20T06:30:15.482Z,4.37
2017-10-20T06:32:43.193Z,3.73
2017-10-20T06:35:11.494Z,3.73
2017-10-20T06:37:39.009Z,3.97
2017-10-20T06:40:06.514Z,4.77
2017-10-20T06:42:34.777Z,4.40
2017-10-20T06:45:03.155Z,4.20
2017-10-20T06:47:31.429Z,4.20
2017-10-20T06:49:59.717Z,4.20
2017-10-20T06:52:28.007Z,4.40
2017-10-20T06:54:55.509Z,4.50
2017-10-20T06:57:23.024Z,4.30
2017-10-20T06:59:51.420Z,3.33
2017-10-20T07:02:19.772Z,3.10
2017-10-20T07:04:47.293Z,3.10
2017-10-20T07:07:14.840Z,3.80
2017-10-20T07:09:42.341Z,4.40
2017-10-20T07:12:11.272Z,4.10
2017-10-20T07:14:38.804Z,4.87
2017-10-20T07:17:06.320Z,3.23
2017-10-20T07:19:39.574Z,3.80
2017-10-20T07:22:07.994Z,3.40
2017-10-20T07:24:35.477Z,3.23
2017-10-20T07:27:03.789Z,2.53
2017-10-20T07:29:31.311Z,2.83
2017-10-20T07:32:00.020Z,2.70
2017-10-20T07:34:27.689Z,3.37
2017-10-20T07:36:56.602Z,3.40
2017-10-20T07:39:24.109Z,3.53
2017-10-20T07:41:52.429Z,3.17
2017-10-20T07:44:20.118Z,3.33
2017-10-20T07:46:48.752Z,3.33
2017-10-20T07:49:16.318Z,3.03
2017-10-20T07:51:43.822Z,2.90
2017-10-20T07:54:11.332Z,3.73
2017-10-20T07:56:38.857Z,2.87
2017-10-20T07:59:06.372Z,2.83
2017-10-20T08:01:33.876Z,2.57
2017-10-20T08:04:02.262Z,3.17
2017-10-20T08:06:29.870Z,2.60
2017-10-20T08:08:57.382Z,2.40
2017-10-20T08:11:24.891Z,2.87
2017-10-20T08:13:52.441Z,2.37
2017-10-20T08:16:20.548Z,2.20
2017-10-20T08:18:48.872Z,2.67
2017-10-20T08:21:16.408Z,2.50
2017-10-20T08:23:43.990Z,2.77
2017-10-20T08:26:12.253Z,2.50
2017-10-20T08:28:40.574Z,2.60
2017-10-20T08:31:08.069Z,2.60
2017-10-20T08:33:35.585Z,2.33
2017-10-20T08:36:03.193Z,2.73
2017-10-20T08:38:30.711Z,2.80
2017-10-20T08:40:58.210Z,2.53
2017-10-20T08:43:25.770Z,3.37
2017-10-20T08:45:53.288Z,2.40
2017-10-20T08:48:20.825Z,3.70
2017-10-20T08:50:49.086Z,2.20
2017-10-20T08:53:16.621Z,3.10
2017-10-20T08:55:44.148Z,2.47
2017-10-20T08:58:11.700Z,2.73
2017-10-20T09:00:39.227Z,3.07
2017-10-20T09:03:07.500Z,2.70
2017-10-20T09:05:35.786Z,4.17
2017-10-20T09:08:04.058Z,3.63
2017-10-20T09:10:32.349Z,2.60
2017-10-20T09:12:59.896Z,1.97
2017-10-20T09:15:28.162Z,2.07
2017-10-20T09:17:56.452Z,2.40
2017-10-20T09:20:25.011Z,2.20
2017-10-20T09:22:52.579Z,3.07
2017-10-20T09:25:20.853Z,3.47
2017-10-20T09:27:49.156Z,1.90
2017-10-20T09:30:16.673Z,3.50
2017-10-20T09:32:44.168Z,2.50
2017-10-20T09:35:11.691Z,2.93
2017-10-20T09:37:39.188Z,2.67
2017-10-20T09:40:07.021Z,2.97
2017-10-20T09:42:35.458Z,2.40
2017-10-20T09:45:02.992Z,3.83
2017-10-20T09:47:30.507Z,3.47
2017-10-20T09:49:59.220Z,2.93
2017-10-20T09:52:29.234Z,2.40
2017-10-20T09:54:57.509Z,3.40
2017-10-20T09:57:27.107Z,3.30
2017-10-20T09:59:54.741Z,3.63
2017-10-20T10:02:22.261Z,2.80
2017-10-20T10:04:49.804Z,3.13
2017-10-20T10:07:18.084Z,2.80
2017-10-20T10:09:46.377Z,3.00
2017-10-20T10:12:13.961Z,2.70
2017-10-20T10:14:41.695Z,2.77
2017-10-20T10:17:09.322Z,2.83
2017-10-20T10:19:37.350Z,2.80
2017-10-20T10:22:05.693Z,2.57
2017-10-20T10:24:33.985Z,2.60
2017-10-20T10:27:01.537Z,3.57
2017-10-20T10:29:29.842Z,3.03
2017-10-20T10:31:57.349Z,2.33
2017-10-20T10:34:24.880Z,3.30
2017-10-20T10:36:52.405Z,2.50
2017-10-20T10:39:20.660Z,3.33
2017-10-20T10:41:48.949Z,2.90
2017-10-20T10:44:16.505Z,2.70
2017-10-20T10:46:44.044Z,2.73
2017-10-20T10:49:12.371Z,3.17
2017-10-20T10:51:39.938Z,2.53
2017-10-20T10:54:07.467Z,3.37
2017-10-20T10:56:34.985Z,2.50
2017-10-20T10:59:02.709Z,2.93
2017-10-20T11:01:30.234Z,2.43
2017-10-20T11:03:58.556Z,3.57
2017-10-20T11:06:37.906Z,2.50
2017-10-20T11:09:17.679Z,2.63
2017-10-20T11:11:57.389Z,3.23
2017-10-20T11:14:24.945Z,2.73
2017-10-20T11:16:52.457Z,2.70
2017-10-20T11:19:20.788Z,1.90
2017-10-20T11:21:48.318Z,3.60
2017-10-20T11:24:15.845Z,2.50
2017-10-20T11:26:44.131Z,2.40
2017-10-20T11:29:12.808Z,3.20
2017-10-20T11:31:41.362Z,2.63
2017-10-20T11:34:09.081Z,2.20
2017-10-20T11:36:36.584Z,3.13
2017-10-20T11:39:04.431Z,2.53
2017-10-20T11:41:31.982Z,3.03
2017-10-20T11:43:59.501Z,3.27
2017-10-20T11:46:27.487Z,3.53
2017-10-20T11:48:54.999Z,3.57
2017-10-20T11:51:22.508Z,3.33
2017-10-20T11:53:50.047Z,3.47
2017-10-20T11:56:18.346Z,3.03
2017-10-20T11:58:46.547Z,3.63
2017-10-20T12:01:14.109Z,2.83
2017-10-20T12:03:42.381Z,3.67
2017-10-20T12:06:10.735Z,2.70
2017-10-20T12:08:38.255Z,2.57
2017-10-20T12:11:05.774Z,3.20
2017-10-20T12:13:33.293Z,3.30
2017-10-20T12:16:01.589Z,3.90
2017-10-20T12:18:29.113Z,3.10
2017-10-20T12:20:56.632Z,3.40
2017-10-20T12:23:24.183Z,3.33
2017-10-20T12:25:51.705Z,3.70
2017-10-20T12:28:19.968Z,3.80
2017-10-20T12:30:47.880Z,2.87
2017-10-20T12:33:15.373Z,2.57
2017-10-20T12:35:42.903Z,2.63
2017-10-20T12:38:12.174Z,4.00
2017-10-20T12:40:40.036Z,2.77
2017-10-20T12:43:07.571Z,3.47
2017-10-20T12:45:35.115Z,3.30
2017-10-20T12:48:02.664Z,4.30
2017-10-20T12:50:30.829Z,4.47
2017-10-20T12:52:58.427Z,4.10
2017-10-20T12:55:25.944Z,4.00
2017-10-20T12:57:53.481Z,3.83
2017-10-20T13:00:21.041Z,4.00
2017-10-20T13:02:48.549Z,4.77
2017-10-20T13:05:16.694Z,4.10
2017-10-20T13:07:44.404Z,3.07
2017-10-20T13:10:12.078Z,3.10
2017-10-20T13:12:40.367Z,3.87
2017-10-20T13:15:07.892Z,3.30
2017-10-20T13:17:37.060Z,3.60
2017-10-20T13:20:04.608Z,2.90
2017-10-20T13:22:32.915Z,3.53
2017-10-20T13:25:00.528Z,3.00
2017-10-20T13:27:28.052Z,2.43
2017-10-20T13:29:55.583Z,3.77
2017-10-20T13:32:23.086Z,3.63
2017-10-20T13:34:51.388Z,4.60
2017-10-20T13:37:19.232Z,2.87
2017-10-20T13:39:47.413Z,4.03
2017-10-20T13:42:14.965Z,3.80
2017-10-20T13:44:44.447Z,4.20
2017-10-20T13:47:13.400Z,3.77
2017-10-20T13:49:40.947Z,3.07
2017-10-20T13:52:08.987Z,3.97
2017-10-20T13:54:36.833Z,3.97
2017-10-20T13:57:05.352Z,3.53
2017-10-20T13:59:33.958Z,3.60
2017-10-20T14:02:01.468Z,4.30
2017-10-20T14:04:29.004Z,4.90
2017-10-20T14:06:56.555Z,4.23
2017-10-20T14:09:24.060Z,3.70
2017-10-20T14:11:53.296Z,3.33
2017-10-20T14:14:20.969Z,3.90
2017-10-20T14:16:48.499Z,4.17
2017-10-20T14:19:16.001Z,4.30
2017-10-20T14:21:43.559Z,4.10
2017-10-20T14:24:11.098Z,3.40
2017-10-20T14:26:38.597Z,4.67
2017-10-20T14:29:06.125Z,3.53
2017-10-20T14:31:33.655Z,3.57
2017-10-20T14:34:01.173Z,3.40
2017-10-20T14:36:28.705Z,3.60
2017-10-20T14:38:56.276Z,4.00
2017-10-20T14:41:23.820Z,3.13
2017-10-20T14:43:51.351Z,3.47
2017-10-20T14:46:19.197Z,4.00
2017-10-20T14:48:47.145Z,4.33
2017-10-20T14:51:14.755Z,3.70
2017-10-20T14:53:42.320Z,4.50
2017-10-20T14:56:10.224Z,4.00
2017-10-20T14:58:37.963Z,4.23
2017-10-20T15:01:07.096Z,4.60
2017-10-20T15:03:34.675Z,3.33
2017-10-20T15:06:03.030Z,3.87
2017-10-20T15:08:32.069Z,3.97
2017-10-20T15:10:59.642Z,3.33
2017-10-20T15:13:27.413Z,3.50
2017-10-20T15:15:55.069Z,4.97
2017-10-20T15:18:23.249Z,3.40
2017-10-20T15:20:51.837Z,3.47
2017-10-20T15:23:19.481Z,4.23
2017-10-20T15:25:47.464Z,4.10
2017-10-20T15:28:15.540Z,3.80
2017-10-20T15:30:44.233Z,4.10
2017-10-20T15:33:13.319Z,4.20
2017-10-20T15:35:41.701Z,4.33
2017-10-20T15:38:09.813Z,3.57
2017-10-20T15:40:38.287Z,4.00
2017-10-20T15:43:06.055Z,5.23
2017-10-20T15:45:35.685Z,3.90
2017-10-20T15:48:03.674Z,4.70
2017-10-20T15:50:32.501Z,3.97
2017-10-20T15:53:00.461Z,4.50
2017-10-20T15:55:28.319Z,3.40
2017-10-20T15:57:56.643Z,3.90
2017-10-20T16:00:25.179Z,3.57
2017-10-20T16:02:53.558Z,4.93
2017-10-20T16:05:23.180Z,3.70
2017-10-20T16:07:54.708Z,3.20
2017-10-20T16:10:23.756Z,4.47
2017-10-20T16:12:51.732Z,5.00
2017-10-20T16:15:20.983Z,4.40
2017-10-20T16:17:48.899Z,5.57
2017-10-20T16:20:17.433Z,4.20
2017-10-20T16:22:45.127Z,4.43
2017-10-20T16:25:13.589Z,5.20
2017-10-20T16:27:42.273Z,5.10
2017-10-20T16:30:11.881Z,4.30
2017-10-20T16:32:41.545Z,4.60
2017-10-20T16:35:10.867Z,5.20
2017-10-20T16:37:38.854Z,4.30
2017-10-20T16:40:07.633Z,4.00
2017-10-20T16:42:37.110Z,4.33
2017-10-20T16:45:05.692Z,4.97
2017-10-20T16:47:33.701Z,4.40
2017-10-20T16:50:01.575Z,6.13
2017-10-20T16:52:29.642Z,4.90
2017-10-20T16:54:57.538Z,4.47
2017-10-20T16:57:25.636Z,5.30
2017-10-20T16:59:53.861Z,5.00
2017-10-20T17:02:22.503Z,4.40
2017-10-20T17:04:50.139Z,5.00
2017-10-20T17:07:20.177Z,4.53
2017-10-20T17:09:48.117Z,5.87
2017-10-20T17:12:17.351Z,4.73
2017-10-20T17:14:45.872Z,5.70
2017-10-20T17:17:13.665Z,6.30
2017-10-20T17:19:41.503Z,4.83
2017-10-20T17:22:09.102Z,5.20
2017-10-20T17:24:37.512Z,4.77
2017-10-20T17:27:05.308Z,4.53
2017-10-20T17:29:32.900Z,5.35
2017-10-20T17:32:00.614Z,6.00
2017-10-20T17:34:28.191Z,4.73
2017-10-20T17:36:55.732Z,5.13
2017-10-20T17:39:23.633Z,5.00
2017-10-20T17:41:51.808Z,5.40
2017-10-20T17:44:20.105Z,5.60
2017-10-20T17:46:47.725Z,5.47
2017-10-20T17:49:15.226Z,4.40
2017-10-20T17:51:42.785Z,4.30
2017-10-20T17:54:10.346Z,5.50
2017-10-20T17:56:38.599Z,4.40
2017-10-20T17:59:06.976Z,4.70
2017-10-20T18:01:34.580Z,4.00
2017-10-20T18:04:04.035Z,4.63
2017-10-20T18:06:32.312Z,5.37
2017-10-20T18:09:00.011Z,5.20
2017-10-20T18:11:28.358Z,3.63
2017-10-20T18:13:56.752Z,4.00
2017-10-20T18:16:24.690Z,5.10
2017-10-20T18:18:52.362Z,3.57
2017-10-20T18:21:20.116Z,3.93
2017-10-20T18:23:47.774Z,4.90
2017-10-20T18:26:15.339Z,3.57
2017-10-20T18:28:42.900Z,4.50
2017-10-20T18:31:10.461Z,4.87
2017-10-20T18:33:38.025Z,3.90
2017-10-20T18:36:05.679Z,4.00
2017-10-20T18:38:33.224Z,3.17
2017-10-20T18:41:01.438Z,5.73
2017-10-20T18:43:30.716Z,3.87
2017-10-20T18:45:58.581Z,4.53
2017-10-20T18:48:26.347Z,5.37
2017-10-20T18:50:54.219Z,4.60
2017-10-20T18:53:22.001Z,4.17
2017-10-20T18:55:49.598Z,5.00
2017-10-20T18:58:17.994Z,5.07
2017-10-20T19:00:45.784Z,4.47
2017-10-20T19:03:13.651Z,4.43
2017-10-20T19:05:41.619Z,4.90
2017-10-20T19:08:10.536Z,6.03
2017-10-20T19:10:38.872Z,3.30
2017-10-20T19:13:06.832Z,5.83
2017-10-20T19:15:34.417Z,3.57
2017-10-20T19:18:02.027Z,4.37
2017-10-20T19:20:30.567Z,3.53
2017-10-20T19:22:59.043Z,5.07
2017-10-20T19:25:27.374Z,4.93
2017-10-20T19:27:55.666Z,5.07
2017-10-20T19:30:24.077Z,4.50
2017-10-20T19:32:51.689Z,4.93
2017-10-20T19:35:19.976Z,5.17
2017-10-20T19:37:48.294Z,5.40
2017-10-20T19:40:15.882Z,5.60
2017-10-20T19:42:43.459Z,4.90
2017-10-20T19:45:11.087Z,4.73
2017-10-20T19:47:38.673Z,4.50
2017-10-20T19:50:06.195Z,5.00
2017-10-20T19:52:33.760Z,4.40
2017-10-20T19:55:01.355Z,4.30
2017-10-20T19:57:28.883Z,4.10
2017-10-20T19:59:57.901Z,3.87
2017-10-20T20:02:25.812Z,5.03
2017-10-20T20:04:53.325Z,5.00
2017-10-20T20:07:21.615Z,4.03
2017-10-20T20:09:49.141Z,4.50
2017-10-20T20:12:16.650Z,3.17
2017-10-20T20:14:44.948Z,3.50
2017-10-20T20:17:12.502Z,3.87
2017-10-20T20:19:40.004Z,3.77
2017-10-20T20:22:07.552Z,3.47
2017-10-20T20:24:35.409Z,3.80
2017-10-20T20:27:04.442Z,3.17
2017-10-20T20:29:32.043Z,4.80
2017-10-20T20:32:05.428Z,4.00
2017-10-20T20:34:33.734Z,3.20
2017-10-20T20:37:01.257Z,2.83
2017-10-20T20:39:29.548Z,4.07
2017-10-20T20:41:57.077Z,3.27
2017-10-20T20:44:24.571Z,3.53
2017-10-20T20:46:52.085Z,3.63
2017-10-20T20:49:19.643Z,3.70
2017-10-20T20:51:47.149Z,3.30
2017-10-20T20:54:14.676Z,3.50
2017-10-20T20:56:42.235Z,3.20
2017-10-20T20:59:09.744Z,3.63
2017-10-20T21:01:37.259Z,3.83
2017-10-20T21:04:06.392Z,3.63
2017-10-20T21:06:33.918Z,4.70
2017-10-20T21:09:01.478Z,4.73
2017-10-20T21:11:29.778Z,3.33
2017-10-20T21:13:57.301Z,4.40
2017-10-20T21:16:24.872Z,4.10
2017-10-20T21:18:53.191Z,5.13
2017-10-20T21:21:20.705Z,3.73
2017-10-20T21:23:48.982Z,4.18
2017-10-20T21:26:17.301Z,4.60
2017-10-20T21:28:44.858Z,4.07
2017-10-20T21:31:12.380Z,4.20
2017-10-20T21:33:40.680Z,3.40
2017-10-20T21:36:08.488Z,4.72
2017-10-20T21:38:41.738Z,3.73
2017-10-20T21:41:11.487Z,3.00
2017-10-20T21:43:39.882Z,3.73
2017-10-20T21:46:07.441Z,3.50
2017-10-20T21:48:35.302Z,2.60
2017-10-20T21:51:02.829Z,3.20
2017-10-20T21:53:33.056Z,3.33
2017-10-20T21:56:01.420Z,3.20
2017-10-20T21:58:28.948Z,3.37
2017-10-20T22:00:57.653Z,4.13
2017-10-20T22:03:25.557Z,2.77
2017-10-20T22:05:53.625Z,3.27
2017-10-20T22:08:22.444Z,3.33
2017-10-20T22:10:54.188Z,3.70
2017-10-20T22:13:22.349Z,3.13
2017-10-20T22:15:52.602Z,2.85
2017-10-20T22:18:21.008Z,3.30
2017-10-20T22:20:49.532Z,3.33
2017-10-20T22:23:27.387Z,3.40
2017-10-20T22:25:56.131Z,3.67
2017-10-20T22:28:23.917Z,3.43
2017-10-20T22:30:51.811Z,3.10
2017-10-20T22:33:20.087Z,3.20
2017-10-20T22:35:48.871Z,2.67
2017-10-20T22:38:16.832Z,3.40
2017-10-20T22:40:45.130Z,3.07
2017-10-20T22:43:12.633Z,2.60
2017-10-20T22:45:41.546Z,2.83
2017-10-20T22:48:10.945Z,3.03
2017-10-20T22:50:39.969Z,3.13
2017-10-20T22:53:08.489Z,3.83
2017-10-20T22:55:37.692Z,2.83
2017-10-20T22:58:05.228Z,3.80
2017-10-20T23:00:32.777Z,3.17
2017-10-20T23:03:02.666Z,3.17
2017-10-20T23:05:30.546Z,4.13
2017-10-20T23:07:58.887Z,3.27
2017-10-20T23:10:26.380Z,3.43
2017-10-20T23:12:54.673Z,3.20
2017-10-20T23:15:22.392Z,3.70
2017-10-20T23:17:49.901Z,2.90
2017-10-20T23:20:17.806Z,3.67
2017-10-20T23:22:46.324Z,2.87
2017-10-20T23:25:15.839Z,3.20
2017-10-20T23:27:43.397Z,3.53
2017-10-20T23:30:12.049Z,2.80
2017-10-20T23:32:39.585Z,3.92
2017-10-20T23:35:07.357Z,3.55
2017-10-20T23:37:34.896Z,4.10
2017-10-20T23:40:02.701Z,3.47
2017-10-20T23:42:30.227Z,3.47
2017-10-20T23:44:57.755Z,3.20
2017-10-20T23:47:25.277Z,3.30
2017-10-20T23:49:52.803Z,2.80
2017-10-20T23:52:21.566Z,3.63
2017-10-20T23:54:50.759Z,3.37
2017-10-20T23:57:18.295Z,4.27
2017-10-20T23:59:45.948Z,3.73
